createdAt,value
2023-02-23T00:01:54.821Z,98062.38
2023-02-23T00:04:23.412Z,98057.97
2023-02-23T00:06:52.165Z,98054.44
2023-02-23T00:09:25.289Z,98066.28
2023-02-23T00:11:57.663Z,98067.03
2023-02-23T00:14:30.978Z,98062.00
2023-02-23T00:16:59.755Z,98051.38
2023-02-23T00:19:26.476Z,98046.81
2023-02-23T00:21:54.237Z,98050.81
2023-02-23T00:24:21.368Z,98042.25
2023-02-23T00:26:51.133Z,98044.72
2023-02-23T00:29:21.945Z,98045.78
2023-02-23T00:31:51.374Z,98047.03
2023-02-23T00:34:23.929Z,98044.88
2023-02-23T00:36:55.010Z,98047.72
2023-02-23T00:39:26.395Z,98047.16
2023-02-23T00:41:55.211Z,98048.44
2023-02-23T00:44:24.003Z,98047.09
2023-02-23T00:46:52.168Z,98037.88
2023-02-23T00:49:21.961Z,98047.72
2023-02-23T00:51:48.637Z,98048.50
2023-02-23T00:54:16.999Z,98049.84
2023-02-23T00:56:43.737Z,98042.72
2023-02-23T00:59:11.482Z,98040.38
2023-02-23T01:01:41.564Z,98036.16
2023-02-23T01:04:08.806Z,98038.06
2023-02-23T01:06:37.888Z,98030.72
2023-02-23T01:09:14.696Z,98044.38
2023-02-23T01:11:41.741Z,98042.16
2023-02-23T01:14:10.843Z,98039.09
2023-02-23T01:16:38.776Z,98039.94
2023-02-23T01:19:06.001Z,98041.97
2023-02-23T01:21:37.937Z,98033.03
2023-02-23T01:24:05.947Z,98036.16
2023-02-23T01:26:36.946Z,98032.63
2023-02-23T01:29:11.383Z,98035.03
2023-02-23T01:31:42.563Z,98039.13
2023-02-23T01:34:12.883Z,98031.56
2023-02-23T01:36:42.254Z,98031.34
2023-02-23T01:39:17.383Z,98029.88
2023-02-23T01:41:45.162Z,98039.94
2023-02-23T01:44:14.632Z,98033.53
2023-02-23T01:46:46.463Z,98028.28
2023-02-23T01:49:27.915Z,98039.22
2023-02-23T01:51:57.599Z,98027.06
2023-02-23T01:54:33.290Z,98030.31
2023-02-23T01:57:03.726Z,98024.44
2023-02-23T01:59:39.599Z,98030.31
2023-02-23T02:02:07.522Z,98020.75
2023-02-23T02:04:46.057Z,98019.59
2023-02-23T02:07:26.666Z,98023.78
2023-02-23T02:10:13.083Z,98020.00
2023-02-23T02:12:44.102Z,98016.13
2023-02-23T02:15:17.285Z,98018.34
2023-02-23T02:18:23.378Z,98019.19
2023-02-23T02:21:14.940Z,98026.09
2023-02-23T02:24:25.573Z,98022.53
2023-02-23T02:27:22.822Z,98017.91
2023-02-23T02:29:49.276Z,98018.50
2023-02-23T02:33:12.093Z,98012.81
2023-02-23T02:36:49.464Z,98008.72
2023-02-23T02:39:46.496Z,98004.81
2023-02-23T02:42:26.976Z,98009.84
2023-02-23T02:45:10.766Z,98010.31
2023-02-23T02:48:30.988Z,98004.22
2023-02-23T02:51:09.360Z,98000.13
2023-02-23T02:54:01.163Z,98002.69
2023-02-23T02:56:28.504Z,98000.06
2023-02-23T02:58:56.068Z,98001.09
2023-02-23T03:01:41.352Z,97994.38
2023-02-23T03:04:42.076Z,97995.84
2023-02-23T03:07:45.010Z,97998.59
2023-02-23T03:10:55.013Z,97993.44
2023-02-23T03:14:19.500Z,97996.16
2023-02-23T03:17:50.349Z,97993.16
2023-02-23T03:21:12.575Z,97995.81
2023-02-23T03:24:32.290Z,97997.13
2023-02-23T03:27:28.682Z,97996.16
2023-02-23T03:30:24.415Z,97991.75
2023-02-23T03:33:24.402Z,97994.81
2023-02-23T03:36:32.388Z,97995.66
2023-02-23T03:40:04.176Z,97990.59
2023-02-23T03:42:55.739Z,98000.50
2023-02-23T03:45:45.467Z,97992.91
2023-02-23T03:48:35.805Z,97996.69
2023-02-23T03:51:27.701Z,97992.50
2023-02-23T03:54:20.170Z,97997.31
2023-02-23T03:57:10.505Z,97992.63
2023-02-23T04:00:05.408Z,97991.03
2023-02-23T04:02:55.190Z,97996.69
2023-02-23T04:05:42.517Z,97993.75
2023-02-23T04:08:34.491Z,97996.81
2023-02-23T04:11:38.332Z,97995.75
2023-02-23T04:14:16.392Z,97995.72
2023-02-23T04:16:43.972Z,98000.44
2023-02-23T04:19:12.264Z,98006.84
2023-02-23T04:21:38.814Z,97998.59
2023-02-23T04:24:05.641Z,98005.94
2023-02-23T04:26:32.128Z,98004.56
2023-02-23T04:28:58.557Z,98001.53
2023-02-23T04:31:25.905Z,98002.44
2023-02-23T04:33:52.684Z,98003.19
2023-02-23T04:36:19.162Z,98003.53
2023-02-23T04:38:45.642Z,98007.63
2023-02-23T04:41:12.201Z,98009.09
2023-02-23T04:43:38.697Z,98000.44
2023-02-23T04:46:05.422Z,98006.97
2023-02-23T04:48:32.035Z,98008.84
2023-02-23T04:50:58.692Z,98008.25
2023-02-23T04:53:27.051Z,98002.16
2023-02-23T04:55:53.529Z,98005.22
2023-02-23T04:58:20.016Z,98003.63
2023-02-23T05:00:46.503Z,98009.78
2023-02-23T05:03:12.988Z,98004.84
2023-02-23T05:05:39.774Z,98007.03
2023-02-23T05:08:06.314Z,98007.94
2023-02-23T05:10:33.003Z,98000.06
2023-02-23T05:13:01.019Z,98007.31
2023-02-23T05:15:28.484Z,98005.09
2023-02-23T05:17:55.867Z,98014.88
2023-02-23T05:20:22.497Z,98012.34
2023-02-23T05:22:49.109Z,98008.88
2023-02-23T05:25:16.696Z,98010.56
2023-02-23T05:27:43.177Z,98005.81
2023-02-23T05:30:10.597Z,98014.75
2023-02-23T05:32:37.198Z,98013.81
2023-02-23T05:35:04.050Z,98012.66
2023-02-23T05:37:30.592Z,98013.94
2023-02-23T05:39:57.122Z,98013.63
2023-02-23T05:42:23.596Z,98020.97
2023-02-23T05:44:50.132Z,98021.69
2023-02-23T05:47:16.850Z,98018.34
2023-02-23T05:49:45.504Z,98017.06
2023-02-23T05:52:12.077Z,98019.38
2023-02-23T05:54:38.572Z,98018.75
2023-02-23T05:57:05.153Z,98015.81
2023-02-23T05:59:31.707Z,98014.13
2023-02-23T06:01:58.219Z,98021.28
2023-02-23T06:04:24.663Z,98019.81
2023-02-23T06:06:51.245Z,98021.06
2023-02-23T06:09:17.739Z,98024.75
2023-02-23T06:11:44.536Z,98024.22
2023-02-23T06:14:11.170Z,98022.84
2023-02-23T06:16:38.056Z,98028.19
2023-02-23T06:19:04.908Z,98029.47
2023-02-23T06:21:31.372Z,98028.63
2023-02-23T06:24:00.858Z,98031.13
2023-02-23T06:26:27.685Z,98030.72
2023-02-23T06:28:54.602Z,98037.84
2023-02-23T06:31:21.663Z,98036.59
2023-02-23T06:33:48.700Z,98041.63
2023-02-23T06:36:15.231Z,98043.34
2023-02-23T06:38:41.728Z,98048.16
2023-02-23T06:41:12.289Z,98046.28
2023-02-23T06:43:38.764Z,98038.94
2023-02-23T06:46:06.172Z,98050.91
2023-02-23T06:48:32.816Z,98053.19
2023-02-23T06:51:00.413Z,98056.34
2023-02-23T06:53:27.374Z,98056.97
2023-02-23T06:55:53.824Z,98049.94
2023-02-23T06:58:20.350Z,98058.47
2023-02-23T07:00:46.888Z,98056.88
2023-02-23T07:03:13.417Z,98049.63
2023-02-23T07:05:40.870Z,98056.88
2023-02-23T07:08:07.857Z,98060.56
2023-02-23T07:10:35.048Z,98057.28
2023-02-23T07:13:01.701Z,98068.75
2023-02-23T07:15:28.323Z,98066.00
2023-02-23T07:17:55.302Z,98072.63
2023-02-23T07:20:21.756Z,98073.16
2023-02-23T07:22:48.265Z,98080.59
2023-02-23T07:25:15.045Z,98081.34
2023-02-23T07:27:42.197Z,98084.59
2023-02-23T07:30:09.799Z,98084.59
2023-02-23T07:32:36.418Z,98079.03
2023-02-23T07:35:05.073Z,98087.75
2023-02-23T07:37:31.673Z,98086.16
2023-02-23T07:40:00.686Z,98089.00
2023-02-23T07:42:27.767Z,98084.56
2023-02-23T07:44:54.281Z,98098.03
2023-02-23T07:47:20.854Z,98090.59
2023-02-23T07:49:47.413Z,98097.81
2023-02-23T07:52:18.760Z,98091.59
2023-02-23T07:54:45.467Z,98096.44
2023-02-23T07:57:12.240Z,98096.66
2023-02-23T07:59:39.209Z,98104.94
2023-02-23T08:02:05.791Z,98099.81
2023-02-23T08:04:32.361Z,98101.41
2023-02-23T08:06:58.851Z,98101.91
2023-02-23T08:09:25.325Z,98105.28
2023-02-23T08:11:51.784Z,98111.03
2023-02-23T08:14:21.906Z,98110.72
2023-02-23T08:16:50.557Z,98110.59
2023-02-23T08:19:18.100Z,98113.97
2023-02-23T08:21:45.364Z,98111.88
2023-02-23T08:24:11.884Z,98110.91
2023-02-23T08:26:38.650Z,98111.66
2023-02-23T08:29:05.242Z,98115.97
2023-02-23T08:31:31.898Z,98118.25
2023-02-23T08:33:58.524Z,98115.16
2023-02-23T08:36:25.068Z,98125.25
2023-02-23T08:38:51.911Z,98129.81
2023-02-23T08:41:18.766Z,98131.41
2023-02-23T08:43:45.448Z,98128.88
2023-02-23T08:46:12.785Z,98135.09
2023-02-23T08:48:40.369Z,98139.09
2023-02-23T08:51:08.315Z,98136.25
2023-02-23T08:53:36.100Z,98138.41
2023-02-23T08:56:07.148Z,98141.75
2023-02-23T08:58:36.108Z,98140.91
2023-02-23T09:01:04.195Z,98139.84
2023-02-23T09:03:32.936Z,98141.88
2023-02-23T09:06:10.133Z,98147.78
2023-02-23T09:08:36.822Z,98154.19
2023-02-23T09:11:03.321Z,98145.00
2023-02-23T09:13:29.883Z,98156.59
2023-02-23T09:15:56.396Z,98151.44
2023-02-23T09:18:24.025Z,98153.72
2023-02-23T09:20:51.391Z,98160.91
2023-02-23T09:23:17.871Z,98161.84
2023-02-23T09:25:45.641Z,98158.16
2023-02-23T09:28:16.035Z,98167.50
2023-02-23T09:30:44.426Z,98171.38
2023-02-23T09:33:12.136Z,98170.47
2023-02-23T09:35:39.803Z,98175.75
2023-02-23T09:38:08.056Z,98172.28
2023-02-23T09:40:54.364Z,98172.13
2023-02-23T09:43:42.473Z,98168.88
2023-02-23T09:47:00.504Z,98176.41
2023-02-23T09:49:34.744Z,98177.25
2023-02-23T09:52:03.838Z,98174.06
2023-02-23T09:54:35.177Z,98181.34
2023-02-23T09:57:06.577Z,98173.03
2023-02-23T09:59:36.079Z,98180.44
2023-02-23T10:02:34.398Z,98180.44
2023-02-23T10:05:14.535Z,98191.19
2023-02-23T10:08:17.065Z,98189.44
2023-02-23T10:10:59.745Z,98185.28
2023-02-23T10:13:49.483Z,98194.16
2023-02-23T10:16:47.923Z,98190.28
2023-02-23T10:20:18.511Z,98189.31
2023-02-23T10:22:49.308Z,98193.03
2023-02-23T10:25:28.588Z,98190.41
2023-02-23T10:27:58.302Z,98193.63
2023-02-23T10:30:31.742Z,98193.28
2023-02-23T10:33:23.593Z,98197.28
2023-02-23T10:36:11.168Z,98203.88
2023-02-23T10:38:39.331Z,98204.69
2023-02-23T10:41:06.592Z,98199.06
2023-02-23T10:43:33.553Z,98201.50
2023-02-23T10:46:00.109Z,98200.34
2023-02-23T10:48:34.103Z,98198.44
2023-02-23T10:51:04.986Z,98202.25
2023-02-23T10:53:35.716Z,98203.22
2023-02-23T10:56:07.452Z,98201.28
2023-02-23T10:58:47.422Z,98205.84
2023-02-23T11:01:36.086Z,98202.47
2023-02-23T11:04:31.144Z,98207.16
2023-02-23T11:07:22.067Z,98210.28
2023-02-23T11:09:49.672Z,98209.25
2023-02-23T11:12:36.135Z,98209.88
2023-02-23T11:15:46.534Z,98210.22
2023-02-23T11:18:23.247Z,98207.53
2023-02-23T11:20:51.106Z,98206.19
2023-02-23T11:23:38.012Z,98206.28
2023-02-23T11:26:33.226Z,98204.69
2023-02-23T11:29:23.620Z,98204.28
2023-02-23T11:31:55.401Z,98192.50
2023-02-23T11:34:35.539Z,98192.50
2023-02-23T11:37:20.123Z,98199.91
2023-02-23T11:40:03.627Z,98194.84
2023-02-23T11:42:33.266Z,98193.59
2023-02-23T11:45:17.291Z,98196.78
2023-02-23T11:47:51.300Z,98188.41
2023-02-23T11:50:35.567Z,98196.31
2023-02-23T11:53:28.508Z,98190.94
2023-02-23T11:56:02.653Z,98192.97
2023-02-23T11:58:51.407Z,98194.84
2023-02-23T12:01:34.656Z,98197.16
2023-02-23T12:04:01.358Z,98197.97
2023-02-23T12:06:40.803Z,98194.16
2023-02-23T12:09:19.400Z,98189.03
2023-02-23T12:12:06.632Z,98196.16
2023-02-23T12:15:00.110Z,98187.84
2023-02-23T12:17:55.513Z,98191.59
2023-02-23T12:20:30.529Z,98187.16
2023-02-23T12:23:10.186Z,98184.19
2023-02-23T12:25:50.687Z,98186.31
2023-02-23T12:28:36.389Z,98189.50
2023-02-23T12:31:28.188Z,98196.06
2023-02-23T12:34:13.602Z,98197.28
2023-02-23T12:36:50.960Z,98197.84
2023-02-23T12:39:41.561Z,98197.91
2023-02-23T12:42:25.028Z,98192.00
2023-02-23T12:45:01.745Z,98196.94
2023-02-23T12:47:40.519Z,98193.13
2023-02-23T12:50:48.051Z,98194.59
2023-02-23T12:53:34.256Z,98190.13
2023-02-23T12:56:04.285Z,98186.44
2023-02-23T12:58:57.832Z,98177.81
2023-02-23T13:01:37.418Z,98176.19
2023-02-23T13:04:24.126Z,98185.75
2023-02-23T13:07:17.047Z,98175.41
2023-02-23T13:10:10.380Z,98178.72
2023-02-23T13:12:45.135Z,98179.13
2023-02-23T13:15:36.600Z,98176.09
2023-02-23T13:18:32.556Z,98181.41
2023-02-23T13:21:18.450Z,98174.75
2023-02-23T13:24:21.708Z,98184.13
2023-02-23T13:26:58.591Z,98175.09
2023-02-23T13:29:38.916Z,98170.09
2023-02-23T13:32:13.794Z,98175.75
2023-02-23T13:35:14.307Z,98174.06
2023-02-23T13:37:48.656Z,98174.31
2023-02-23T13:41:10.068Z,98173.91
2023-02-23T13:43:54.410Z,98184.13
2023-02-23T13:46:26.745Z,98168.41
2023-02-23T13:49:16.242Z,98180.63
2023-02-23T13:51:54.640Z,98173.91
2023-02-23T13:54:31.570Z,98175.97
2023-02-23T13:57:16.674Z,98183.03
2023-02-23T13:59:45.685Z,98180.00
2023-02-23T14:02:43.477Z,98183.06
2023-02-23T14:05:22.578Z,98175.47
2023-02-23T14:07:55.371Z,98185.50
2023-02-23T14:10:27.208Z,98185.28
2023-02-23T14:13:07.145Z,98187.41
2023-02-23T14:15:39.599Z,98189.91
2023-02-23T14:18:21.365Z,98188.00
2023-02-23T14:21:15.752Z,98191.78
2023-02-23T14:23:42.142Z,98192.63
2023-02-23T14:26:40.865Z,98187.00
2023-02-23T14:29:18.979Z,98192.88
2023-02-23T14:32:03.555Z,98190.75
2023-02-23T14:34:56.948Z,98198.25
2023-02-23T14:37:40.713Z,98192.25
2023-02-23T14:40:18.090Z,98196.69
2023-02-23T14:42:52.298Z,98206.69
2023-02-23T14:45:27.338Z,98198.78
2023-02-23T14:48:12.605Z,98203.53
2023-02-23T14:50:41.275Z,98197.34
2023-02-23T14:53:20.499Z,98200.50
2023-02-23T14:55:48.509Z,98196.28
2023-02-23T14:58:30.231Z,98199.00
2023-02-23T15:00:56.943Z,98197.78
2023-02-23T15:03:23.433Z,98195.44
2023-02-23T15:05:59.700Z,98195.44
2023-02-23T15:08:31.131Z,98201.56
2023-02-23T15:11:12.194Z,98200.50
2023-02-23T15:13:46.964Z,98201.56
2023-02-23T15:16:24.026Z,98210.09
2023-02-23T15:18:51.758Z,98204.06
2023-02-23T15:21:23.357Z,98209.56
2023-02-23T15:23:58.429Z,98209.75
2023-02-23T15:26:33.253Z,98214.50
2023-02-23T15:29:15.202Z,98210.19
2023-02-23T15:31:50.140Z,98207.47
2023-02-23T15:34:20.956Z,98205.28
2023-02-23T15:36:56.232Z,98213.03
2023-02-23T15:39:38.585Z,98207.66
2023-02-23T15:42:08.140Z,98210.28
2023-02-23T15:44:44.121Z,98213.88
2023-02-23T15:47:21.830Z,98208.28
2023-02-23T15:49:50.074Z,98214.81
2023-02-23T15:52:24.236Z,98208.53
2023-02-23T15:55:03.237Z,98210.63
2023-02-23T15:57:34.380Z,98216.28
2023-02-23T16:00:10.598Z,98211.91
2023-02-23T16:02:37.582Z,98212.00
2023-02-23T16:05:23.045Z,98209.16
2023-02-23T16:08:23.379Z,98207.13
2023-02-23T16:10:57.520Z,98209.31
2023-02-23T16:13:24.523Z,98209.91
2023-02-23T16:15:55.813Z,98210.63
2023-02-23T16:18:40.928Z,98211.38
2023-02-23T16:21:16.867Z,98209.69
2023-02-23T16:23:50.634Z,98210.41
2023-02-23T16:26:24.454Z,98220.63
2023-02-23T16:29:00.185Z,98218.41
2023-02-23T16:31:49.010Z,98227.97
2023-02-23T16:34:35.440Z,98224.06
2023-02-23T16:37:17.932Z,98221.97
2023-02-23T16:39:45.090Z,98216.28
2023-02-23T16:42:34.728Z,98226.19
2023-02-23T16:45:02.091Z,98218.06
2023-02-23T16:47:40.507Z,98216.47
2023-02-23T16:50:21.918Z,98219.63
2023-02-23T16:52:54.493Z,98220.25
2023-02-23T16:55:28.031Z,98218.91
2023-02-23T16:58:00.404Z,98222.78
2023-02-23T17:00:31.909Z,98220.97
2023-02-23T17:03:00.673Z,98226.75
2023-02-23T17:05:29.228Z,98216.47
2023-02-23T17:07:58.026Z,98228.84
2023-02-23T17:10:33.091Z,98227.28
2023-02-23T17:13:06.757Z,98229.41
2023-02-23T17:15:38.207Z,98223.56
2023-02-23T17:18:05.771Z,98231.66
2023-02-23T17:20:33.674Z,98227.16
2023-02-23T17:23:02.438Z,98228.66
2023-02-23T17:25:29.873Z,98220.91
2023-02-23T17:27:58.114Z,98220.97
2023-02-23T17:30:25.891Z,98226.41
2023-02-23T17:32:55.437Z,98226.72
2023-02-23T17:35:23.273Z,98228.63
2023-02-23T17:37:50.481Z,98229.00
2023-02-23T17:40:28.863Z,98233.41
2023-02-23T17:42:58.290Z,98231.31
2023-02-23T17:45:26.273Z,98234.00
2023-02-23T17:47:53.010Z,98234.25
2023-02-23T17:50:21.581Z,98230.09
2023-02-23T17:52:49.531Z,98233.91
2023-02-23T17:55:17.445Z,98238.63
2023-02-23T17:57:44.164Z,98235.56
2023-02-23T18:00:14.321Z,98234.72
2023-02-23T18:02:43.931Z,98229.47
2023-02-23T18:05:12.996Z,98232.09
2023-02-23T18:07:40.009Z,98232.22
2023-02-23T18:10:07.152Z,98240.09
2023-02-23T18:12:33.906Z,98239.72
2023-02-23T18:15:00.430Z,98239.97
2023-02-23T18:17:26.905Z,98236.50
2023-02-23T18:19:53.400Z,98235.66
2023-02-23T18:22:19.891Z,98241.97
2023-02-23T18:24:46.423Z,98249.53
2023-02-23T18:27:13.315Z,98242.00
2023-02-23T18:29:39.809Z,98244.44
2023-02-23T18:32:07.900Z,98253.97
2023-02-23T18:34:35.443Z,98255.66
2023-02-23T18:37:03.342Z,98246.22
2023-02-23T18:39:31.900Z,98248.91
2023-02-23T18:42:00.246Z,98254.81
2023-02-23T18:44:27.281Z,98252.94
2023-02-23T18:46:54.851Z,98253.78
2023-02-23T18:49:24.574Z,98252.19
2023-02-23T18:51:51.350Z,98254.72
2023-02-23T18:54:18.851Z,98250.84
2023-02-23T18:56:48.027Z,98248.03
2023-02-23T18:59:15.595Z,98246.03
2023-02-23T19:01:46.433Z,98257.78
2023-02-23T19:04:13.709Z,98247.03
2023-02-23T19:06:44.734Z,98251.81
2023-02-23T19:09:14.545Z,98252.00
2023-02-23T19:11:43.175Z,98258.84
2023-02-23T19:14:16.241Z,98258.78
2023-02-23T19:16:44.141Z,98247.59
2023-02-23T19:19:11.077Z,98252.28
2023-02-23T19:21:38.451Z,98242.53
2023-02-23T19:24:06.503Z,98244.53
2023-02-23T19:26:38.735Z,98241.34
2023-02-23T19:29:06.466Z,98238.34
2023-02-23T19:31:36.823Z,98246.56
2023-02-23T19:34:05.036Z,98241.19
2023-02-23T19:36:33.672Z,98240.16
2023-02-23T19:39:15.449Z,98239.63
2023-02-23T19:41:45.502Z,98233.47
2023-02-23T19:44:12.034Z,98231.78
2023-02-23T19:46:39.918Z,98241.16
2023-02-23T19:49:06.918Z,98238.72
2023-02-23T19:51:33.485Z,98235.78
2023-02-23T19:54:00.359Z,98242.94
2023-02-23T19:56:27.992Z,98245.56
2023-02-23T19:59:01.239Z,98243.13
2023-02-23T20:01:29.811Z,98243.41
2023-02-23T20:04:05.044Z,98242.88
2023-02-23T20:06:38.959Z,98245.03
2023-02-23T20:09:05.976Z,98244.84
2023-02-23T20:11:33.212Z,98248.31
2023-02-23T20:14:00.448Z,98254.09
2023-02-23T20:16:29.453Z,98253.72
2023-02-23T20:18:58.240Z,98246.78
2023-02-23T20:21:27.258Z,98252.59
2023-02-23T20:23:55.805Z,98256.78
2023-02-23T20:26:27.152Z,98253.63
2023-02-23T20:28:56.137Z,98258.03
2023-02-23T20:31:27.431Z,98263.09
2023-02-23T20:33:58.295Z,98262.38
2023-02-23T20:36:26.273Z,98256.91
2023-02-23T20:38:53.175Z,98251.47
2023-02-23T20:41:21.223Z,98256.19
2023-02-23T20:43:48.222Z,98253.63
2023-02-23T20:46:16.941Z,98243.63
2023-02-23T20:48:44.171Z,98247.94
2023-02-23T20:51:14.317Z,98244.41
2023-02-23T20:53:42.035Z,98250.38
2023-02-23T20:56:09.993Z,98249.81
2023-02-23T20:58:36.573Z,98243.53
2023-02-23T21:01:06.391Z,98247.69
2023-02-23T21:03:34.554Z,98252.00
2023-02-23T21:06:01.466Z,98251.41
2023-02-23T21:08:28.772Z,98261.97
2023-02-23T21:10:55.749Z,98251.28
2023-02-23T21:13:23.035Z,98252.97
2023-02-23T21:16:00.725Z,98251.09
2023-02-23T21:18:28.727Z,98257.28
2023-02-23T21:20:56.768Z,98256.91
2023-02-23T21:23:26.055Z,98258.16
2023-02-23T21:25:53.016Z,98254.19
2023-02-23T21:28:20.644Z,98248.78
2023-02-23T21:30:47.601Z,98254.69
2023-02-23T21:33:14.891Z,98255.53
2023-02-23T21:35:41.351Z,98251.31
2023-02-23T21:38:08.204Z,98246.81
2023-02-23T21:40:35.530Z,98250.78
2023-02-23T21:43:06.479Z,98252.44
2023-02-23T21:45:33.032Z,98249.94
2023-02-23T21:47:59.577Z,98251.03
2023-02-23T21:50:26.207Z,98244.75
2023-02-23T21:52:57.740Z,98249.81
2023-02-23T21:55:24.227Z,98246.34
2023-02-23T21:57:52.155Z,98244.38
2023-02-23T22:00:20.854Z,98249.44
2023-02-23T22:02:47.754Z,98245.72
2023-02-23T22:05:17.192Z,98250.78
2023-02-23T22:07:54.807Z,98247.59
2023-02-23T22:10:24.508Z,98242.25
2023-02-23T22:12:56.690Z,98238.59
2023-02-23T22:15:29.512Z,98234.72
2023-02-23T22:17:56.427Z,98231.47
2023-02-23T22:20:23.490Z,98229.31
2023-02-23T22:22:53.059Z,98223.03
2023-02-23T22:25:20.506Z,98225.81
2023-02-23T22:27:47.831Z,98227.88
2023-02-23T22:30:15.410Z,98222.22
2023-02-23T22:32:43.231Z,98234.94
2023-02-23T22:35:10.317Z,98232.38
2023-02-23T22:37:36.864Z,98228.41
2023-02-23T22:40:16.455Z,98230.34
2023-02-23T22:42:49.708Z,98223.78
2023-02-23T22:45:17.746Z,98217.72
2023-02-23T22:47:44.419Z,98209.25
2023-02-23T22:50:13.872Z,98206.16
2023-02-23T22:52:40.753Z,98212.72
2023-02-23T22:55:07.948Z,98204.59
2023-02-23T22:57:34.449Z,98208.41
2023-02-23T23:00:06.977Z,98209.53
2023-02-23T23:02:33.536Z,98208.44
2023-02-23T23:05:01.703Z,98208.91
2023-02-23T23:07:29.270Z,98200.00
2023-02-23T23:09:55.788Z,98202.75
2023-02-23T23:12:22.231Z,98201.69
2023-02-23T23:14:48.727Z,98193.06
2023-02-23T23:17:15.767Z,98191.00
2023-02-23T23:19:42.438Z,98191.91
2023-02-23T23:22:14.368Z,98190.66
2023-02-23T23:24:45.846Z,98193.75
2023-02-23T23:27:14.501Z,98192.81
2023-02-23T23:29:46.405Z,98187.69
2023-02-23T23:32:19.032Z,98189.16
2023-02-23T23:34:48.826Z,98186.38
2023-02-23T23:39:43.996Z,98179.63
2023-02-23T23:42:10.596Z,98182.13
2023-02-23T23:44:37.599Z,98167.44
2023-02-23T23:47:06.978Z,98174.75
2023-02-23T23:49:39.997Z,98174.38
2023-02-23T23:52:07.089Z,98168.28
2023-02-23T23:54:42.648Z,98167.34
2023-02-23T23:57:11.469Z,98166.78
2023-02-23T23:59:45.618Z,98166.88
